Breckenridge, Illinois
Current Conditions -  °F | °C
As of 8:52 AM on Saturday 25 Oct 2014 (Local Time) from KSPI Reporting Station
Haze Haze  
Wind Chill: 61°   Ceiling: 500
Heat Index: 61°   Visibility: 3mi
Dew Point: 58°   Wind: 5mph
Humidity: 90%   Direction: 230°SW
Pressure: 30.02"   Gusts: NA
Location:  39.7312°N, 89.5322°W
Report Text: KSPI 251352Z 23004KT 3SM BR OVC005 16/14 A3002 RMK AO2 SLP165 T01610144
Loading
Personal Weather Stations






























Interactive Weather Map
Tropical Storm Tracking
New forecast layout! Learn more

10-Day Weather Forecast

Advertisements
Track Severe Weather on mobile